JNB weather

OR Tambo International Airport
Johannesburg, Gauteng, South Africa

Public forecast

Using degrees Celsius for public forecast. Weather courtesy of forecast.io.

METAR (pilot weather report)

Retrieved 2018/10/18 00:00 UTC (11 minutes ago):

FAOR 180000Z 11010KT 9999 BKN008 12/10 Q1020 NOSIG

TAF (pilot weather forecast)

Forecast is more than 12 hours old.

Retrieved 2018/10/17 00:00 UTC (1 day ago):

TAF FAOR 172200Z 1800/1906 10010KT 9999 BKN010 PROB30 TEMPO 1801/1805 4000 BR BKN005 BECMG 1806/1808 03010KT SCT030 BECMG 1809/1811 33010KT PROB30 TEMPO 1813/1815 FEW040TCU BECMG 1821/1823 VRB03KT TX24/1814Z TN11/1803Z